createdAt,value
2023-03-21T00:00:56.312Z,84.65
2023-03-21T00:03:23.101Z,85.31
2023-03-21T00:05:52.082Z,86.78
2023-03-21T00:08:22.366Z,88.17
2023-03-21T00:10:56.265Z,89.37
2023-03-21T00:13:22.881Z,89.96
2023-03-21T00:16:05.800Z,88.89
2023-03-21T00:18:43.119Z,90.16
2023-03-21T00:24:00.441Z,89.92
2023-03-21T00:26:26.973Z,89.15
2023-03-21T00:28:53.448Z,88.88
2023-03-21T00:31:23.061Z,89.71
2023-03-21T00:33:52.304Z,89.74
2023-03-21T00:36:21.800Z,89.50
2023-03-21T00:38:52.063Z,87.66
2023-03-21T00:41:40.939Z,87.96
2023-03-21T00:44:08.567Z,86.08
2023-03-21T00:46:45.259Z,87.65
2023-03-21T00:49:16.063Z,88.40
2023-03-21T00:51:43.729Z,89.84
2023-03-21T00:54:12.350Z,89.61
2023-03-21T00:56:38.800Z,89.75
2023-03-21T00:59:05.296Z,89.30
2023-03-21T01:01:32.282Z,88.87
2023-03-21T01:04:07.675Z,87.92
2023-03-21T01:06:40.216Z,87.35
2023-03-21T01:09:14.024Z,87.43
2023-03-21T01:11:41.772Z,88.03
2023-03-21T01:14:21.555Z,88.65
2023-03-21T01:16:52.541Z,88.46
2023-03-21T01:19:27.476Z,88.00
2023-03-21T01:21:56.466Z,87.09
2023-03-21T01:24:23.870Z,86.75
2023-03-21T01:26:52.454Z,87.35
2023-03-21T01:29:18.886Z,87.10
2023-03-21T01:31:45.565Z,85.82
2023-03-21T01:34:12.218Z,85.48
2023-03-21T01:36:38.899Z,86.17
2023-03-21T01:39:06.688Z,86.11
2023-03-21T01:41:43.469Z,86.53
2023-03-21T01:44:17.170Z,86.29
2023-03-21T01:47:03.589Z,87.09
2023-03-21T01:49:40.976Z,86.83
2023-03-21T01:52:18.962Z,87.08
2023-03-21T01:54:54.629Z,86.37
2023-03-21T01:58:06.713Z,86.73
2023-03-21T02:00:34.235Z,85.30
2023-03-21T02:03:13.648Z,85.83
2023-03-21T02:05:47.987Z,86.78
2023-03-21T02:08:14.546Z,87.22
2023-03-21T02:10:44.061Z,87.26
2023-03-21T02:13:11.881Z,87.67
2023-03-21T02:15:41.371Z,88.11
2023-03-21T02:18:27.968Z,87.95
2023-03-21T02:21:12.857Z,87.30
2023-03-21T02:23:56.695Z,88.17
2023-03-21T02:26:42.403Z,88.31
2023-03-21T02:29:19.362Z,88.64
2023-03-21T02:32:20.334Z,87.47
2023-03-21T02:34:57.563Z,87.46
2023-03-21T02:37:42.912Z,88.71
2023-03-21T02:40:28.522Z,87.72
2023-03-21T02:43:23.289Z,87.94
2023-03-21T02:46:17.108Z,88.38
2023-03-21T02:49:43.106Z,87.88
2023-03-21T02:52:31.707Z,88.35
2023-03-21T02:55:05.574Z,88.32
2023-03-21T02:57:42.107Z,87.61
2023-03-21T03:00:16.658Z,86.05
2023-03-21T03:02:44.120Z,87.06
2023-03-21T03:05:22.745Z,88.52
2023-03-21T03:08:00.889Z,89.04
2023-03-21T03:10:46.375Z,91.52
2023-03-21T03:13:12.815Z,93.00
2023-03-21T03:15:55.081Z,93.11
2023-03-21T03:18:40.445Z,93.57
2023-03-21T03:21:06.946Z,94.34
2023-03-21T03:24:10.121Z,95.96
2023-03-21T03:26:41.640Z,95.34
2023-03-21T03:29:11.874Z,96.47
2023-03-21T03:31:45.837Z,98.72
2023-03-21T03:34:17.955Z,99.56
2023-03-21T03:36:47.676Z,98.11
2023-03-21T03:39:15.885Z,99.16
2023-03-21T03:42:08.021Z,98.58
2023-03-21T03:44:36.326Z,98.21
2023-03-21T03:47:22.848Z,98.21
2023-03-21T03:50:26.623Z,96.46
2023-03-21T03:53:13.012Z,96.81
2023-03-21T03:55:45.596Z,96.12
2023-03-21T03:58:21.723Z,95.35
2023-03-21T04:00:51.813Z,94.33
2023-03-21T04:03:18.770Z,93.53
2023-03-21T04:05:47.803Z,93.61
2023-03-21T04:08:16.134Z,93.31
2023-03-21T04:10:43.078Z,94.13
2023-03-21T04:13:09.904Z,94.29
2023-03-21T04:15:36.766Z,93.66
2023-03-21T04:18:03.384Z,93.56
2023-03-21T04:20:36.929Z,93.22
2023-03-21T04:23:04.614Z,92.84
2023-03-21T04:25:38.635Z,92.78
2023-03-21T04:28:06.948Z,92.00
2023-03-21T04:30:34.227Z,92.22
2023-03-21T04:33:04.478Z,92.41
2023-03-21T04:35:37.475Z,92.07
2023-03-21T04:38:04.987Z,91.67
2023-03-21T04:40:32.736Z,90.90
2023-03-21T04:43:03.506Z,90.27
2023-03-21T04:45:29.970Z,89.99
2023-03-21T04:47:57.358Z,91.01
2023-03-21T04:50:23.938Z,90.22
2023-03-21T04:52:50.622Z,91.60
2023-03-21T04:55:17.141Z,93.32
2023-03-21T04:57:43.613Z,94.95
2023-03-21T05:00:10.835Z,95.95
2023-03-21T05:02:38.454Z,95.78
2023-03-21T05:05:05.433Z,96.21
2023-03-21T05:07:35.010Z,97.01
2023-03-21T05:10:02.678Z,99.05
2023-03-21T05:12:29.343Z,99.65
2023-03-21T05:14:55.844Z,99.04
2023-03-21T05:17:24.957Z,96.43
2023-03-21T05:19:52.889Z,95.75
2023-03-21T05:22:20.495Z,96.31
2023-03-21T05:24:50.802Z,95.92
2023-03-21T05:27:35.805Z,95.59
2023-03-21T05:30:10.039Z,94.78
2023-03-21T05:32:39.782Z,93.47
2023-03-21T05:35:07.130Z,93.27
2023-03-21T05:37:36.826Z,93.30
2023-03-21T05:40:06.587Z,94.03
2023-03-21T05:42:33.288Z,95.12
2023-03-21T05:44:59.823Z,94.19
2023-03-21T05:47:26.794Z,94.92
2023-03-21T05:49:53.253Z,95.04
2023-03-21T05:52:19.805Z,95.55
2023-03-21T05:54:46.555Z,96.02
2023-03-21T05:57:13.044Z,97.29
2023-03-21T05:59:39.578Z,99.00
2023-03-21T06:02:09.562Z,100.00
2023-03-21T06:04:38.899Z,100.00
2023-03-21T06:07:07.730Z,100.00
2023-03-21T06:09:38.359Z,100.00
2023-03-21T06:12:06.169Z,100.00
2023-03-21T06:14:32.656Z,100.00
2023-03-21T06:16:59.196Z,100.00
2023-03-21T06:19:26.208Z,100.00
2023-03-21T06:21:52.707Z,100.00
2023-03-21T06:24:19.166Z,100.00
2023-03-21T06:26:46.323Z,100.00
2023-03-21T06:29:12.921Z,100.00
2023-03-21T06:31:39.586Z,100.00
2023-03-21T06:34:11.734Z,100.00
2023-03-21T06:36:38.420Z,100.00
2023-03-21T06:39:08.282Z,99.94
2023-03-21T06:41:38.697Z,97.70
2023-03-21T06:44:08.954Z,96.74
2023-03-21T06:46:39.322Z,95.98
2023-03-21T06:49:11.156Z,94.35
2023-03-21T06:51:40.312Z,92.71
2023-03-21T06:54:10.907Z,91.57
2023-03-21T06:56:41.472Z,91.76
2023-03-21T06:59:08.993Z,92.14
2023-03-21T07:01:38.022Z,90.19
2023-03-21T07:04:08.932Z,91.30
2023-03-21T07:06:41.492Z,91.53
2023-03-21T07:09:08.460Z,90.07
2023-03-21T07:11:41.661Z,88.55
2023-03-21T07:14:08.551Z,87.70
2023-03-21T07:16:36.606Z,87.03
2023-03-21T07:19:03.157Z,86.37
2023-03-21T07:21:30.034Z,86.41
2023-03-21T07:23:57.086Z,85.52
2023-03-21T07:26:23.942Z,83.73
2023-03-21T07:28:50.768Z,83.38
2023-03-21T07:31:17.579Z,83.10
2023-03-21T07:33:44.217Z,82.15
2023-03-21T07:36:13.313Z,80.99
2023-03-21T07:38:41.133Z,80.10
2023-03-21T07:41:08.150Z,80.35
2023-03-21T07:43:40.221Z,78.66
2023-03-21T07:46:08.256Z,76.33
2023-03-21T07:48:40.803Z,75.02
2023-03-21T07:51:09.873Z,74.84
2023-03-21T07:53:37.354Z,74.91
2023-03-21T07:56:07.364Z,75.16
2023-03-21T07:58:41.924Z,74.94
2023-03-21T08:01:08.546Z,74.13
2023-03-21T08:03:37.793Z,72.95
2023-03-21T08:06:06.935Z,71.13
2023-03-21T08:08:33.461Z,70.72
2023-03-21T08:11:00.119Z,70.19
2023-03-21T08:13:26.613Z,68.75
2023-03-21T08:15:53.409Z,67.25
2023-03-21T08:18:19.889Z,66.26
2023-03-21T08:20:46.494Z,66.09
2023-03-21T08:23:13.882Z,64.16
2023-03-21T08:25:40.493Z,62.93
2023-03-21T08:28:09.823Z,62.92
2023-03-21T08:30:37.922Z,61.75
2023-03-21T08:33:06.849Z,61.57
2023-03-21T08:35:33.433Z,60.76
2023-03-21T08:38:03.098Z,60.92
2023-03-21T08:40:29.632Z,58.27
2023-03-21T08:42:56.232Z,57.86
2023-03-21T08:45:23.720Z,60.01
2023-03-21T08:47:50.344Z,61.06
2023-03-21T08:50:22.350Z,64.14
2023-03-21T08:52:49.693Z,62.40
2023-03-21T08:55:18.080Z,62.99
2023-03-21T08:57:45.884Z,62.42
2023-03-21T09:00:15.231Z,60.89
2023-03-21T09:02:42.190Z,61.56
2023-03-21T09:05:11.908Z,60.22
2023-03-21T09:07:39.859Z,59.50
2023-03-21T09:10:22.145Z,59.17
2023-03-21T09:12:54.326Z,58.21
2023-03-21T09:15:24.805Z,60.36
2023-03-21T09:17:54.179Z,60.05
2023-03-21T09:20:26.253Z,60.40
2023-03-21T09:22:53.708Z,60.68
2023-03-21T09:25:21.572Z,58.69
2023-03-21T09:27:48.347Z,59.38
2023-03-21T09:30:17.952Z,57.69
2023-03-21T09:32:49.429Z,56.09
2023-03-21T09:35:20.528Z,56.20
2023-03-21T09:37:48.955Z,56.10
2023-03-21T09:40:40.149Z,55.25
2023-03-21T09:43:36.634Z,54.99
2023-03-21T09:46:29.101Z,55.52
2023-03-21T09:49:02.716Z,57.04
2023-03-21T09:51:41.091Z,55.53
2023-03-21T09:54:17.781Z,56.43
2023-03-21T09:56:45.693Z,55.79
2023-03-21T09:59:22.783Z,54.18
2023-03-21T10:01:50.573Z,55.00
2023-03-21T10:04:20.697Z,55.46
2023-03-21T10:06:55.406Z,55.07
2023-03-21T10:09:24.551Z,55.65
2023-03-21T10:11:56.534Z,54.87
2023-03-21T10:14:45.416Z,55.16
2023-03-21T10:17:44.133Z,54.35
2023-03-21T10:20:11.985Z,55.31
2023-03-21T10:22:38.682Z,52.55
2023-03-21T10:25:08.660Z,51.76
2023-03-21T10:27:39.789Z,52.96
2023-03-21T10:30:16.128Z,54.90
2023-03-21T10:32:42.866Z,54.39
2023-03-21T10:35:13.216Z,53.64
2023-03-21T10:37:39.896Z,50.31
2023-03-21T10:40:15.413Z,49.78
2023-03-21T10:42:43.084Z,48.98
2023-03-21T10:45:19.510Z,50.64
2023-03-21T10:47:51.582Z,49.62
2023-03-21T10:50:24.952Z,49.41
2023-03-21T10:52:55.615Z,50.25
2023-03-21T10:55:32.106Z,46.57
2023-03-21T10:58:18.963Z,46.55
2023-03-21T11:00:47.745Z,47.27
2023-03-21T11:03:31.393Z,45.35
2023-03-21T11:06:28.413Z,45.45
2023-03-21T11:09:00.489Z,46.06
2023-03-21T11:11:42.414Z,45.87
2023-03-21T11:14:31.957Z,45.53
2023-03-21T11:16:58.601Z,45.95
2023-03-21T11:19:33.668Z,45.43
2023-03-21T11:22:08.549Z,45.25
2023-03-21T11:24:38.359Z,45.51
2023-03-21T11:27:09.087Z,44.00
2023-03-21T11:29:41.439Z,44.13
2023-03-21T11:32:14.806Z,44.70
2023-03-21T11:34:47.900Z,42.79
2023-03-21T11:37:21.113Z,41.63
2023-03-21T11:39:47.655Z,42.41
2023-03-21T11:42:32.828Z,43.16
2023-03-21T11:45:13.751Z,40.17
2023-03-21T11:47:40.580Z,40.43
2023-03-21T11:50:47.317Z,40.16
2023-03-21T11:53:21.036Z,38.37
2023-03-21T11:55:56.914Z,38.06
2023-03-21T11:58:31.592Z,38.70
2023-03-21T12:01:19.480Z,38.38
2023-03-21T12:04:04.132Z,38.44
2023-03-21T12:06:30.674Z,40.45
2023-03-21T12:09:09.170Z,37.69
2023-03-21T12:11:55.363Z,34.95
2023-03-21T12:14:29.626Z,34.16
2023-03-21T12:17:22.028Z,35.17
2023-03-21T12:20:25.657Z,35.36
2023-03-21T12:23:23.423Z,36.57
2023-03-21T12:26:04.168Z,35.21
2023-03-21T12:29:04.546Z,38.77
2023-03-21T12:31:49.396Z,36.56
2023-03-21T12:34:24.582Z,35.08
2023-03-21T12:37:05.761Z,34.69
2023-03-21T12:39:36.713Z,34.50
2023-03-21T12:42:30.683Z,32.12
2023-03-21T12:45:11.534Z,33.53
2023-03-21T12:47:47.059Z,32.49
2023-03-21T12:50:40.550Z,33.09
2023-03-21T12:53:36.040Z,32.86
2023-03-21T12:56:12.384Z,36.18
2023-03-21T12:58:59.592Z,34.89
2023-03-21T13:01:28.596Z,35.40
2023-03-21T13:04:17.325Z,36.70
2023-03-21T13:06:46.572Z,38.64
2023-03-21T13:09:18.110Z,36.45
2023-03-21T13:11:48.441Z,36.02
2023-03-21T13:14:25.404Z,36.88
2023-03-21T13:17:01.771Z,37.39
2023-03-21T13:19:41.987Z,37.26
2023-03-21T13:22:28.182Z,37.81
2023-03-21T13:25:06.713Z,38.09
2023-03-21T13:27:34.445Z,37.31
2023-03-21T13:30:12.341Z,36.49
2023-03-21T13:32:44.360Z,38.07
2023-03-21T13:35:27.716Z,37.46
2023-03-21T13:37:59.224Z,37.82
2023-03-21T13:40:29.166Z,37.16
2023-03-21T13:42:59.598Z,39.78
2023-03-21T13:45:44.517Z,40.01
2023-03-21T13:48:31.769Z,39.83
2023-03-21T13:51:04.213Z,39.04
2023-03-21T13:53:44.752Z,38.78
2023-03-21T13:56:17.407Z,38.35
2023-03-21T13:58:43.798Z,40.91
2023-03-21T14:01:45.070Z,41.08
2023-03-21T14:04:21.260Z,40.78
2023-03-21T14:06:54.475Z,43.71
2023-03-21T14:09:43.926Z,44.08
2023-03-21T14:12:19.668Z,45.06
2023-03-21T14:14:50.768Z,44.69
2023-03-21T14:17:29.658Z,44.80
2023-03-21T14:20:00.764Z,45.66
2023-03-21T14:22:28.211Z,45.46
2023-03-21T14:25:01.948Z,45.42
2023-03-21T14:27:34.292Z,45.53
2023-03-21T14:30:02.263Z,45.32
2023-03-21T14:32:30.298Z,45.03
2023-03-21T14:34:59.646Z,44.76
2023-03-21T14:37:45.174Z,45.03
2023-03-21T14:40:27.817Z,44.89
2023-03-21T14:42:55.115Z,44.08
2023-03-21T14:45:28.486Z,45.50
2023-03-21T14:48:01.463Z,45.07
2023-03-21T14:50:39.494Z,45.33
2023-03-21T14:53:08.104Z,43.50
2023-03-21T14:55:45.531Z,43.23
2023-03-21T14:58:17.633Z,44.42
2023-03-21T15:00:47.649Z,43.82
2023-03-21T15:03:17.279Z,43.89
2023-03-21T15:05:45.889Z,42.83
2023-03-21T15:08:20.228Z,43.27
2023-03-21T15:11:07.327Z,44.45
2023-03-21T15:14:17.471Z,45.21
2023-03-21T15:16:44.281Z,44.40
2023-03-21T15:19:16.341Z,44.17
2023-03-21T15:21:51.094Z,45.70
2023-03-21T15:24:25.709Z,45.34
2023-03-21T15:26:59.064Z,46.27
2023-03-21T15:29:27.385Z,48.15
2023-03-21T15:31:54.123Z,44.52
2023-03-21T15:34:27.717Z,45.53
2023-03-21T15:37:14.595Z,44.66
2023-03-21T15:39:41.804Z,44.81
2023-03-21T15:42:33.914Z,45.50
2023-03-21T15:45:03.150Z,45.42
2023-03-21T15:47:47.779Z,45.59
2023-03-21T15:50:36.613Z,46.48
2023-03-21T15:53:07.787Z,47.32
2023-03-21T15:56:01.946Z,46.75
2023-03-21T15:58:36.151Z,46.85
2023-03-21T16:01:06.638Z,43.42
2023-03-21T16:03:37.169Z,43.81
2023-03-21T16:06:20.665Z,44.18
2023-03-21T16:08:50.081Z,43.51
2023-03-21T16:11:22.205Z,46.53
2023-03-21T16:13:49.637Z,48.09
2023-03-21T16:16:25.961Z,54.23
2023-03-21T16:18:54.311Z,50.01
2023-03-21T16:21:24.272Z,48.91
2023-03-21T16:23:51.158Z,49.38
2023-03-21T16:26:22.867Z,48.93
2023-03-21T16:28:50.237Z,49.78
2023-03-21T16:31:24.875Z,49.26
2023-03-21T16:33:52.276Z,48.95
2023-03-21T16:36:24.400Z,50.26
2023-03-21T16:38:52.741Z,50.51
2023-03-21T16:41:20.793Z,49.71
2023-03-21T16:43:47.850Z,51.31
2023-03-21T16:46:16.856Z,52.69
2023-03-21T16:48:46.556Z,53.81
2023-03-21T16:51:17.915Z,53.61
2023-03-21T16:53:44.954Z,52.49
2023-03-21T16:56:18.858Z,54.76
2023-03-21T16:58:45.533Z,50.35
2023-03-21T17:01:19.362Z,48.32
2023-03-21T17:03:47.440Z,47.23
2023-03-21T17:06:22.586Z,46.93
2023-03-21T17:08:49.126Z,49.92
2023-03-21T17:11:20.090Z,48.68
2023-03-21T17:13:51.981Z,46.52
2023-03-21T17:16:26.680Z,44.70
2023-03-21T17:18:54.349Z,44.79
2023-03-21T17:21:23.123Z,45.04
2023-03-21T17:23:50.579Z,44.85
2023-03-21T17:26:23.374Z,45.07
2023-03-21T17:28:50.644Z,46.11
2023-03-21T17:31:20.152Z,50.02
2023-03-21T17:33:51.039Z,50.21
2023-03-21T17:36:26.518Z,50.08
2023-03-21T17:38:55.410Z,50.65
2023-03-21T17:41:22.715Z,52.35
2023-03-21T17:43:50.977Z,52.24
2023-03-21T17:46:21.053Z,52.52
2023-03-21T17:48:51.548Z,53.46
2023-03-21T17:51:18.394Z,54.32
2023-03-21T17:53:50.661Z,53.66
2023-03-21T17:56:31.930Z,53.55
2023-03-21T17:59:00.445Z,54.42
2023-03-21T18:01:30.285Z,54.46
2023-03-21T18:03:57.636Z,54.50
2023-03-21T18:06:25.920Z,55.04
2023-03-21T18:08:59.631Z,55.71
2023-03-21T18:11:27.343Z,56.31
2023-03-21T18:14:13.708Z,55.32
2023-03-21T18:16:44.895Z,55.41
2023-03-21T18:19:17.899Z,55.10
2023-03-21T18:21:45.244Z,54.91
2023-03-21T18:24:14.827Z,55.39
2023-03-21T18:26:43.688Z,56.21
2023-03-21T18:32:07.371Z,57.02
2023-03-21T18:34:37.417Z,57.38
2023-03-21T18:37:07.482Z,57.63
2023-03-21T18:39:36.220Z,58.11
2023-03-21T18:42:04.124Z,59.07
2023-03-21T18:44:38.976Z,58.90
2023-03-21T18:47:07.244Z,58.88
2023-03-21T18:52:21.333Z,59.61
2023-03-21T18:54:48.048Z,60.42
2023-03-21T19:00:02.822Z,60.81
2023-03-21T19:02:29.309Z,61.12
2023-03-21T19:04:57.850Z,61.46
2023-03-21T19:07:24.928Z,61.28
2023-03-21T19:10:15.433Z,61.76
2023-03-21T19:12:38.522Z,62.21
2023-03-21T19:15:08.521Z,62.09
2023-03-21T19:18:23.264Z,62.64
2023-03-21T19:20:21.828Z,62.75
2023-03-21T19:22:48.734Z,62.68
2023-03-21T19:25:16.524Z,63.20
2023-03-21T19:28:32.171Z,62.66
2023-03-21T19:31:09.499Z,63.01
2023-03-21T19:33:36.208Z,64.21
2023-03-21T19:36:18.011Z,64.74
2023-03-21T19:38:47.629Z,65.03
2023-03-21T19:41:18.060Z,65.21
2023-03-21T19:43:54.200Z,65.74
2023-03-21T19:46:25.314Z,66.34
2023-03-21T19:48:56.294Z,67.00
2023-03-21T19:51:29.125Z,68.24
2023-03-21T19:53:56.145Z,68.08
2023-03-21T19:56:26.451Z,68.48
2023-03-21T19:58:54.118Z,67.97
2023-03-21T20:01:21.359Z,68.30
2023-03-21T20:03:48.008Z,69.19
2023-03-21T20:06:18.509Z,69.42
2023-03-21T20:09:34.072Z,69.38
2023-03-21T20:11:33.792Z,69.72
2023-03-21T20:14:02.870Z,70.51
2023-03-21T20:16:35.246Z,70.98
2023-03-21T20:19:04.613Z,70.87
2023-03-21T20:21:36.595Z,70.85
2023-03-21T20:24:09.023Z,70.97
2023-03-21T20:26:37.352Z,70.78
2023-03-21T20:29:48.430Z,71.58
2023-03-21T20:31:53.156Z,72.14
2023-03-21T20:34:21.171Z,72.67
2023-03-21T20:36:48.249Z,72.90
2023-03-21T20:39:15.718Z,72.61
2023-03-21T20:41:45.874Z,73.52
2023-03-21T20:47:05.455Z,74.48
2023-03-21T20:49:32.364Z,73.96
2023-03-21T20:54:50.766Z,73.00
2023-03-21T20:57:18.033Z,72.99
2023-03-21T20:59:47.545Z,73.67
2023-03-21T21:02:16.852Z,74.91
2023-03-21T21:05:08.042Z,75.48
2023-03-21T21:07:34.346Z,76.16
2023-03-21T21:10:01.323Z,76.71
2023-03-21T21:12:28.628Z,76.70
2023-03-21T21:14:56.169Z,76.35
2023-03-21T21:17:37.121Z,76.30
2023-03-21T21:20:17.641Z,76.29
2023-03-21T21:22:58.578Z,77.31
2023-03-21T21:25:27.122Z,78.20
2023-03-21T21:27:53.831Z,78.25
2023-03-21T21:30:20.856Z,78.71
2023-03-21T21:32:47.353Z,78.33
2023-03-21T21:35:16.384Z,77.88
2023-03-21T21:37:43.469Z,76.67
2023-03-21T21:40:16.665Z,76.33
2023-03-21T21:42:44.880Z,75.66
2023-03-21T21:45:13.550Z,75.44
2023-03-21T21:47:41.872Z,76.14
2023-03-21T21:50:08.885Z,77.11
2023-03-21T21:52:35.746Z,78.05
2023-03-21T21:55:06.371Z,78.23
2023-03-21T21:57:35.415Z,78.10
2023-03-21T22:00:06.160Z,77.98
2023-03-21T22:02:32.739Z,78.73
2023-03-21T22:04:59.158Z,78.58
2023-03-21T22:07:30.490Z,78.51
2023-03-21T22:09:56.944Z,78.01
2023-03-21T22:12:23.427Z,79.50
2023-03-21T22:14:49.972Z,78.93
2023-03-21T22:17:18.768Z,78.22
2023-03-21T22:19:58.974Z,75.82
2023-03-21T22:22:31.097Z,73.82
2023-03-21T22:24:57.891Z,75.30
2023-03-21T22:27:24.689Z,77.28
2023-03-21T22:29:51.438Z,78.29
2023-03-21T22:32:21.524Z,79.84
2023-03-21T22:34:51.390Z,80.66
2023-03-21T22:37:19.516Z,81.34
2023-03-21T22:39:46.578Z,81.72
2023-03-21T22:42:13.154Z,81.92
2023-03-21T22:44:39.727Z,81.08
2023-03-21T22:47:10.574Z,81.00
2023-03-21T22:49:38.416Z,81.48
2023-03-21T22:52:06.331Z,79.91
2023-03-21T22:54:33.120Z,79.96
2023-03-21T22:56:59.895Z,80.56
2023-03-21T22:59:26.785Z,81.24
2023-03-21T23:01:53.442Z,80.64
2023-03-21T23:04:20.550Z,81.08
2023-03-21T23:06:47.226Z,81.03
2023-03-21T23:09:13.742Z,81.01
2023-03-21T23:11:40.464Z,81.32
2023-03-21T23:14:08.714Z,82.24
2023-03-21T23:16:38.403Z,82.46
2023-03-21T23:19:05.845Z,82.56
2023-03-21T23:21:34.565Z,83.65
2023-03-21T23:24:01.105Z,86.44
2023-03-21T23:26:27.692Z,86.26
2023-03-21T23:28:54.792Z,86.33
2023-03-21T23:31:27.021Z,86.24
2023-03-21T23:33:54.396Z,85.13
2023-03-21T23:36:23.676Z,85.00
2023-03-21T23:38:50.644Z,84.07
2023-03-21T23:41:20.765Z,83.65
2023-03-21T23:43:48.163Z,82.26
2023-03-21T23:46:16.417Z,80.92
2023-03-21T23:48:44.475Z,80.96
2023-03-21T23:51:13.024Z,81.79
2023-03-21T23:53:40.196Z,83.00
2023-03-21T23:56:15.997Z,83.33
2023-03-21T23:58:42.984Z,82.93
